Time;durP1;ratioP1;P1;durP2;ratioP2;P2;SDS_P1;SDS_P2;PMS_P1;PMS_P2;Temp;Humidity;BMP_temperature;BMP_pressure;BME280_temperature;BME280_humidity;BME280_pressure;Samples;Min_cycle;Max_cycle;Signal;HPM_P1;HPM_P2
2023/02/03 00:00:58;;;;;;;245.18;86.38;;;6.80;99.90;;;;;;4999738;28;20041;-73
2023/02/03 00:03:24;;;;;;;224.57;85.82;;;6.70;99.90;;;;;;4988538;28;20142;-72
2023/02/03 00:05:51;;;;;;;229.27;89.68;;;6.80;99.90;;;;;;4999107;28;20041;-72
2023/02/03 00:08:18;;;;;;;212.52;84.88;;;6.80;99.90;;;;;;5000579;28;20515;-73
2023/02/03 00:10:45;;;;;;;211.52;81.75;;;6.70;99.90;;;;;;4999229;28;20355;-72
2023/02/03 00:13:13;;;;;;;217.25;84.45;;;6.70;99.90;;;;;;5001507;28;20068;-73
2023/02/03 00:15:39;;;;;;;194.70;80.28;;;6.70;99.90;;;;;;4998039;28;20034;-71
2023/02/03 00:18:06;;;;;;;192.57;78.45;;;6.70;99.90;;;;;;5006345;28;20042;-72
2023/02/03 00:20:33;;;;;;;195.45;80.38;;;6.80;99.90;;;;;;4968580;28;20124;-72
2023/02/03 00:23:08;;;;;;;211.48;85.63;;;6.80;99.90;;;;;;5004398;28;20052;-71
2023/02/03 00:25:35;;;;;;;213.13;85.68;;;6.70;99.90;;;;;;4995175;28;20045;-73
2023/02/03 00:28:02;;;;;;;190.70;81.75;;;6.80;99.90;;;;;;5005589;28;20045;-72
2023/02/03 00:30:30;;;;;;;184.98;76.70;;;6.80;99.90;;;;;;5003468;28;20065;-73
2023/02/03 00:32:57;;;;;;;178.95;76.80;;;6.70;99.90;;;;;;4971196;28;20520;-69
2023/02/03 00:35:24;;;;;;;186.25;78.65;;;6.70;99.90;;;;;;5005708;28;20230;-70
2023/02/03 00:37:54;;;;;;;173.68;72.55;;;6.70;99.90;;;;;;4995804;28;20512;-73
2023/02/03 00:40:24;;;;;;;184.48;76.72;;;6.70;99.90;;;;;;4980411;28;20236;-71
2023/02/03 00:42:51;;;;;;;185.32;76.63;;;6.70;99.90;;;;;;5005734;28;20115;-74
2023/02/03 00:45:18;;;;;;;154.07;64.50;;;6.80;99.90;;;;;;5008341;28;20057;-71
2023/02/03 00:47:45;;;;;;;166.40;72.95;;;6.80;99.90;;;;;;5000966;28;20061;-69
2023/02/03 00:50:12;;;;;;;155.30;68.00;;;6.70;99.90;;;;;;4999908;28;20474;-72
2023/02/03 00:52:39;;;;;;;161.52;68.75;;;6.70;99.90;;;;;;4999033;28;20547;-72
2023/02/03 00:55:06;;;;;;;145.80;65.88;;;6.70;99.90;;;;;;4981949;28;20492;-71
2023/02/03 00:57:33;;;;;;;164.27;71.53;;;6.70;99.90;;;;;;5005856;28;20088;-74
2023/02/03 01:00:00;;;;;;;148.23;64.65;;;6.70;99.90;;;;;;5007812;28;20454;-72
2023/02/03 01:02:27;;;;;;;172.48;70.82;;;6.80;99.90;;;;;;5002519;28;20056;-73
2023/02/03 01:04:54;;;;;;;151.52;65.55;;;6.80;99.90;;;;;;5004864;28;20059;-71
2023/02/03 01:07:21;;;;;;;112.82;55.30;;;6.70;99.90;;;;;;5004400;28;20045;-73
2023/02/03 01:09:47;;;;;;;153.30;65.55;;;6.80;99.90;;;;;;5005664;28;20068;-73
2023/02/03 01:12:14;;;;;;;141.23;67.05;;;6.80;99.90;;;;;;5020067;28;20037;-73
2023/02/03 01:14:41;;;;;;;145.57;66.18;;;6.80;99.90;;;;;;4998728;28;20044;-71
2023/02/03 01:17:07;;;;;;;128.73;60.97;;;6.80;99.90;;;;;;5017234;28;20071;-73
2023/02/03 01:19:34;;;;;;;139.80;65.63;;;6.80;99.90;;;;;;5002662;28;20053;-73
2023/02/03 01:22:01;;;;;;;130.05;57.83;;;6.80;99.90;;;;;;4999332;28;20061;-73
2023/02/03 01:24:29;;;;;;;154.65;68.22;;;6.80;99.90;;;;;;5002136;28;20804;-72
2023/02/03 01:26:56;;;;;;;126.25;58.35;;;6.80;99.90;;;;;;5005903;28;20049;-72
2023/02/03 01:29:23;;;;;;;128.00;59.17;;;6.80;99.90;;;;;;5005193;28;20049;-72
2023/02/03 01:31:49;;;;;;;122.30;56.25;;;6.80;99.90;;;;;;5002647;28;20038;-71
2023/02/03 01:34:17;;;;;;;119.38;54.92;;;6.80;99.90;;;;;;5000684;28;20527;-70
2023/02/03 01:36:45;;;;;;;126.88;58.30;;;6.80;99.90;;;;;;4999907;28;20329;-73
2023/02/03 01:39:12;;;;;;;116.40;53.53;;;6.90;99.90;;;;;;5008332;28;20034;-73
2023/02/03 01:41:39;;;;;;;118.20;56.58;;;6.80;99.90;;;;;;5024756;28;20045;-72
2023/02/03 01:44:31;;;;;;;110.22;52.03;;;6.80;99.90;;;;;;5026263;28;20189;-72
2023/02/03 01:46:58;;;;;;;124.28;57.60;;;6.80;99.90;;;;;;5012469;28;20041;-73
2023/02/03 01:49:30;;;;;;;110.00;53.80;;;6.90;99.90;;;;;;5017739;28;20051;-72
2023/02/03 01:51:57;;;;;;;99.53;48.35;;;6.90;99.90;;;;;;5030825;28;20518;-73
2023/02/03 01:54:30;;;;;;;88.07;42.33;;;6.90;99.90;;;;;;5014503;28;20038;-73
2023/02/03 01:57:05;;;;;;;107.28;51.50;;;6.90;99.90;;;;;;5005084;28;20060;-73
2023/02/03 01:59:33;;;;;;;;;;;6.90;99.90;;;;;;4997323;28;20292;-73
2023/02/03 02:02:00;;;;;;;98.18;44.25;;;6.90;99.90;;;;;;5026720;28;19952;-73
2023/02/03 02:04:35;;;;;;;105.15;51.17;;;6.90;99.90;;;;;;4988461;28;20492;-73
2023/02/03 02:07:03;;;;;;;114.80;52.60;;;6.90;99.90;;;;;;5004277;28;20981;-73
2023/02/03 02:09:29;;;;;;;110.95;51.67;;;6.80;99.90;;;;;;5002767;28;20046;-73
2023/02/03 02:11:56;;;;;;;108.60;52.67;;;6.90;99.90;;;;;;5022721;28;20046;-74
2023/02/03 02:14:23;;;;;;;111.30;51.88;;;6.90;99.90;;;;;;5007832;28;20341;-74
2023/02/03 02:17:04;;;;;;;113.60;54.70;;;6.90;99.90;;;;;;5000298;28;20587;-73
2023/02/03 02:19:56;;;;;;;96.75;47.33;;;6.90;99.90;;;;;;5005609;28;20496;-73
2023/02/03 02:22:43;;;;;;;109.97;54.90;;;6.90;99.90;;;;;;4996653;28;20037;-73
2023/02/03 02:25:28;;;;;;;96.20;48.65;;;6.90;99.90;;;;;;5004817;28;20045;-72
2023/02/03 02:28:26;;;;;;;108.57;53.58;;;6.90;99.90;;;;;;5012703;28;20049;-71
2023/02/03 02:31:04;;;;;;;101.43;50.40;;;6.90;99.90;;;;;;5006155;28;20048;-73
2023/02/03 02:33:50;;;;;;;102.18;46.58;;;6.90;99.90;;;;;;4996979;28;20041;-72
2023/02/03 02:36:34;;;;;;;90.88;43.90;;;6.80;99.90;;;;;;5008327;28;20033;-72
2023/02/03 02:39:19;;;;;;;91.88;43.85;;;6.80;99.90;;;;;;5022142;28;20104;-71
2023/02/03 02:41:52;;;;;;;101.90;51.03;;;6.90;99.90;;;;;;5008853;28;20495;-73
2023/02/03 02:44:36;;;;;;;98.07;46.08;;;6.90;99.90;;;;;;5011205;28;20048;-72
2023/02/03 02:47:15;;;;;;;99.28;45.85;;;6.90;99.90;;;;;;5012425;28;20688;-72
2023/02/03 02:49:45;;;;;;;100.50;50.03;;;6.90;99.90;;;;;;5018141;28;20128;-72
2023/02/03 02:52:15;;;;;;;102.53;49.47;;;6.90;99.90;;;;;;5000140;28;20037;-72
2023/02/03 02:54:47;;;;;;;92.53;48.45;;;6.80;99.90;;;;;;5006017;28;20494;-72
2023/02/03 02:57:16;;;;;;;87.90;45.75;;;6.80;99.90;;;;;;4998654;28;20066;-71
2023/02/03 02:59:45;;;;;;;94.72;46.60;;;6.80;99.90;;;;;;5000072;28;20115;-71
2023/02/03 03:02:12;;;;;;;85.03;42.97;;;6.90;99.90;;;;;;5004429;28;20073;-73
2023/02/03 03:04:39;;;;;;;85.35;42.70;;;6.90;99.90;;;;;;5006804;28;20128;-72
2023/02/03 03:07:13;;;;;;;89.85;44.28;;;6.90;99.90;;;;;;5004036;28;20045;-73
2023/02/03 03:09:43;;;;;;;82.07;42.83;;;6.80;99.90;;;;;;5018491;28;20547;-70
2023/02/03 03:12:17;;;;;;;85.43;40.97;;;6.90;99.90;;;;;;5000405;28;20293;-70
2023/02/03 03:14:54;;;;;;;81.22;40.78;;;6.90;99.90;;;;;;5011985;28;20049;-71
2023/02/03 03:17:28;;;;;;;81.47;36.35;;;6.90;99.90;;;;;;5001670;28;20438;-73
2023/02/03 03:20:00;;;;;;;83.50;45.30;;;6.90;99.90;;;;;;5005697;28;20045;-72
2023/02/03 03:22:34;;;;;;;82.90;44.00;;;6.90;99.90;;;;;;5000552;28;20462;-70
2023/02/03 03:25:09;;;;;;;93.00;45.60;;;6.90;99.90;;;;;;5004484;28;20132;-70
2023/02/03 03:27:41;;;;;;;87.63;44.58;;;6.90;99.90;;;;;;4984080;28;20089;-69
2023/02/03 03:30:13;;;;;;;85.63;43.45;;;6.90;99.90;;;;;;5008573;28;20234;-70
2023/02/03 03:32:40;;;;;;;80.30;40.30;;;6.90;99.90;;;;;;5018678;28;20069;-72
2023/02/03 03:35:07;;;;;;;77.07;41.88;;;6.90;99.90;;;;;;5033948;28;20037;-69
2023/02/03 03:37:55;;;;;;;87.45;45.75;;;6.90;99.90;;;;;;5023849;28;20070;-70
2023/02/03 03:40:30;;;;;;;80.03;43.65;;;6.90;99.90;;;;;;5002667;28;20072;-71
2023/02/03 03:43:19;;;;;;;92.55;45.50;;;6.90;99.90;;;;;;5022986;28;20407;-73
2023/02/03 03:45:57;;;;;;;92.63;48.53;;;6.90;99.90;;;;;;5005864;28;20057;-74
2023/02/03 03:48:46;;;;;;;91.85;45.42;;;6.90;99.90;;;;;;4999995;28;20050;-72
2023/02/03 03:51:21;;;;;;;86.85;44.28;;;6.90;99.90;;;;;;5014484;28;20048;-73
2023/02/03 03:53:50;;;;;;;81.68;45.17;;;6.90;99.90;;;;;;4999399;28;20046;-73
2023/02/03 03:56:24;;;;;;;89.07;45.22;;;6.90;99.90;;;;;;5011846;28;20036;-72
2023/02/03 04:01:21;;;;;;;86.40;44.45;;;6.90;99.90;;;;;;4989190;28;20293;-74
2023/02/03 04:03:53;;;;;;;78.00;40.40;;;6.90;99.90;;;;;;4991711;28;20056;-74
2023/02/03 04:06:19;;;;;;;76.40;40.88;;;6.90;99.90;;;;;;4993994;28;20042;-74
2023/02/03 04:08:46;;;;;;;88.03;43.33;;;6.90;99.90;;;;;;4991166;28;20056;-74
2023/02/03 04:11:59;;;;;;;82.72;44.00;;;6.90;99.90;;;;;;4988337;28;20110;-74
2023/02/03 04:13:59;;;;;;;78.68;39.53;;;6.90;99.90;;;;;;4994699;28;20053;-74
2023/02/03 04:16:26;;;;;;;85.85;42.60;;;6.90;99.90;;;;;;4989436;28;20540;-74
2023/02/03 04:18:53;;;;;;;77.75;41.47;;;6.90;99.90;;;;;;4995628;28;20057;-74
2023/02/03 04:21:20;;;;;;;76.93;36.20;;;6.90;99.90;;;;;;4995657;28;20053;-73
2023/02/03 04:23:46;;;;;;;73.05;39.35;;;6.90;99.90;;;;;;5002481;28;20403;-74
2023/02/03 04:26:13;;;;;;;79.85;40.83;;;6.90;99.90;;;;;;4994529;28;20558;-73
2023/02/03 04:28:40;;;;;;;72.32;40.60;;;6.90;99.90;;;;;;4988747;28;20500;-73
2023/02/03 04:31:07;;;;;;;76.68;40.13;;;6.90;99.90;;;;;;4990220;28;20205;-73
2023/02/03 04:33:34;;;;;;;71.32;36.78;;;6.90;99.90;;;;;;4994904;28;20530;-73
2023/02/03 04:36:00;;;;;;;81.68;40.17;;;6.90;99.90;;;;;;4981480;28;20049;-73
2023/02/03 04:38:27;;;;;;;78.07;40.08;;;6.90;99.90;;;;;;4981558;28;20041;-73
2023/02/03 04:40:54;;;;;;;72.88;38.83;;;6.90;99.90;;;;;;4993877;28;20153;-73
2023/02/03 04:43:20;;;;;;;72.55;38.20;;;6.90;99.90;;;;;;4994598;28;20508;-73
2023/02/03 04:45:47;;;;;;;69.20;37.50;;;6.90;99.90;;;;;;4991440;28;20046;-74
2023/02/03 04:48:14;;;;;;;87.10;39.85;;;6.90;99.90;;;;;;4995084;28;20173;-73
2023/02/03 04:50:41;;;;;;;68.68;36.00;;;6.90;99.90;;;;;;4984654;28;20339;-73
2023/02/03 04:53:07;;;;;;;72.15;38.17;;;6.90;99.90;;;;;;4990171;28;20045;-73
2023/02/03 04:55:34;;;;;;;75.22;39.67;;;6.90;99.90;;;;;;4995393;28;20050;-75
2023/02/03 04:58:01;;;;;;;68.18;37.72;;;6.90;99.90;;;;;;4993486;28;20193;-75
2023/02/03 05:00:28;;;;;;;74.85;39.00;;;6.90;99.90;;;;;;5002671;28;20033;-74
2023/02/03 05:02:55;;;;;;;69.93;39.70;;;6.90;99.90;;;;;;5016457;28;20041;-75
2023/02/03 05:05:22;;;;;;;66.05;37.60;;;6.90;99.90;;;;;;5012833;28;20103;-75
2023/02/03 05:07:49;;;;;;;63.00;34.92;;;6.90;99.90;;;;;;5013473;28;20099;-75
2023/02/03 05:10:15;;;;;;;65.60;35.53;;;6.90;99.90;;;;;;5014889;28;20086;-75
2023/02/03 05:12:42;;;;;;;67.13;35.85;;;6.90;99.90;;;;;;5017625;28;20037;-74
2023/02/03 05:15:09;;;;;;;62.30;32.42;;;7.00;99.90;;;;;;5030662;28;20038;-75
2023/02/03 05:17:38;;;;;;;61.10;34.45;;;6.90;99.90;;;;;;5017883;28;20040;-74
2023/02/03 05:20:06;;;;;;;57.47;31.45;;;6.90;99.90;;;;;;5012495;28;20050;-74
2023/02/03 05:22:34;;;;;;;57.97;33.45;;;6.90;99.90;;;;;;5016871;28;20117;-73
2023/02/03 05:25:02;;;;;;;64.53;31.90;;;6.90;99.90;;;;;;5021955;28;20058;-74
2023/02/03 05:27:29;;;;;;;58.28;31.90;;;6.90;99.90;;;;;;5031953;28;20038;-73
2023/02/03 05:29:55;;;;;;;64.80;34.45;;;6.90;99.90;;;;;;5013137;28;20527;-73
2023/02/03 05:32:22;;;;;;;59.67;31.63;;;6.90;99.90;;;;;;5013896;28;20204;-73
2023/02/03 05:34:49;;;;;;;63.28;33.03;;;6.90;99.90;;;;;;5027588;28;20038;-74
2023/02/03 05:37:15;;;;;;;55.83;29.55;;;6.90;99.90;;;;;;5015621;28;20406;-74
2023/02/03 05:39:42;;;;;;;53.90;29.20;;;6.90;99.90;;;;;;5015454;28;20042;-74
2023/02/03 05:42:08;;;;;;;47.83;27.48;;;6.90;99.90;;;;;;5008557;28;20432;-74
2023/02/03 05:44:35;;;;;;;46.45;26.77;;;6.90;99.90;;;;;;5011924;28;20042;-75
2023/02/03 05:47:02;;;;;;;56.83;27.92;;;6.90;99.90;;;;;;5025481;28;20046;-74
2023/02/03 05:49:28;;;;;;;45.08;26.83;;;6.90;99.90;;;;;;5014177;28;20038;-75
2023/02/03 05:51:55;;;;;;;47.75;28.00;;;7.00;99.90;;;;;;5012210;28;20272;-73
2023/02/03 05:54:22;;;;;;;41.13;25.17;;;7.00;99.90;;;;;;5016338;28;20072;-74
2023/02/03 05:56:49;;;;;;;49.28;27.90;;;6.90;99.90;;;;;;5013136;28;20467;-73
2023/02/03 05:59:16;;;;;;;46.90;26.38;;;6.90;99.90;;;;;;5013927;28;20041;-74
2023/02/03 06:01:43;;;;;;;42.25;25.45;;;6.90;99.90;;;;;;5027179;28;20109;-74
2023/02/03 06:04:10;;;;;;;45.75;24.58;;;6.90;99.90;;;;;;5021975;28;20225;-75
2023/02/03 06:06:37;;;;;;;43.83;25.23;;;6.90;99.90;;;;;;5032796;28;20041;-74
2023/02/03 06:09:06;;;;;;;42.80;23.60;;;6.90;99.90;;;;;;5011981;28;20060;-75
2023/02/03 06:11:34;;;;;;;56.15;29.13;;;6.90;99.90;;;;;;5031952;28;20057;-75
2023/02/03 06:14:01;;;;;;;45.30;26.60;;;6.90;99.90;;;;;;4997695;28;20065;-74
2023/02/03 06:16:28;;;;;;;50.08;27.08;;;6.90;99.90;;;;;;5014687;28;20045;-74
2023/02/03 06:18:59;;;;;;;46.60;27.75;;;6.90;99.90;;;;;;5028775;28;20046;-73
2023/02/03 06:21:27;;;;;;;46.00;28.02;;;6.90;99.90;;;;;;5014979;28;20039;-73
2023/02/03 06:23:55;;;;;;;50.08;26.58;;;6.90;99.90;;;;;;5013025;28;20132;-74
2023/02/03 06:26:22;;;;;;;50.35;25.77;;;6.80;99.90;;;;;;5015834;28;20057;-74
2023/02/03 06:28:48;;;;;;;45.83;26.65;;;6.90;99.90;;;;;;5021306;28;20053;-74
2023/02/03 06:31:15;;;;;;;47.92;26.65;;;6.90;99.90;;;;;;5021405;28;20787;-73
2023/02/03 06:33:42;;;;;;;46.53;25.90;;;6.90;99.90;;;;;;5036515;28;20253;-74
2023/02/03 06:36:09;;;;;;;46.03;25.55;;;6.90;99.90;;;;;;5016429;28;20614;-76
2023/02/03 06:38:35;;;;;;;49.50;25.63;;;6.80;99.90;;;;;;5037547;28;20181;-75
2023/02/03 06:41:02;;;;;;;48.60;29.25;;;6.80;99.90;;;;;;5013351;28;20137;-74
2023/02/03 06:43:29;;;;;;;59.22;32.08;;;6.80;99.90;;;;;;5015164;28;20864;-73
2023/02/03 06:45:55;;;;;;;53.53;28.98;;;6.80;99.90;;;;;;5011432;28;20041;-73
2023/02/03 06:48:22;;;;;;;63.55;33.78;;;6.80;99.90;;;;;;5011740;28;20049;-73
2023/02/03 06:50:49;;;;;;;71.25;35.70;;;6.70;99.90;;;;;;5011877;28;20049;-73
2023/02/03 06:53:16;;;;;;;63.47;34.28;;;6.70;99.90;;;;;;5010528;28;20038;-73
2023/02/03 06:55:43;;;;;;;72.50;36.30;;;6.70;99.90;;;;;;5015357;28;20046;-72
2023/02/03 06:58:10;;;;;;;78.75;37.58;;;6.60;99.90;;;;;;5014255;28;20052;-73
2023/02/03 07:00:36;;;;;;;63.47;31.15;;;6.60;99.90;;;;;;5014922;28;20038;-72
2023/02/03 07:03:03;;;;;;;57.20;30.70;;;6.60;99.90;;;;;;5009529;28;20042;-72
2023/02/03 07:05:30;;;;;;;81.30;37.38;;;6.60;99.90;;;;;;5013854;28;20136;-73
2023/02/03 07:07:57;;;;;;;78.43;39.70;;;6.60;99.90;;;;;;5007254;28;20046;-72
2023/02/03 07:10:24;;;;;;;82.28;39.70;;;6.60;99.90;;;;;;5011926;28;20057;-72
2023/02/03 07:12:51;;;;;;;79.90;38.17;;;6.60;99.90;;;;;;5011004;28;20041;-73
2023/02/03 07:15:18;;;;;;;88.07;43.65;;;6.60;99.90;;;;;;5007247;28;20358;-72
2023/02/03 07:17:53;;;;;;;78.28;40.92;;;6.60;99.90;;;;;;5009030;28;20056;-73
2023/02/03 07:20:21;;;;;;;79.35;37.17;;;6.60;99.90;;;;;;5010790;28;20048;-72
2023/02/03 07:22:55;;;;;;;94.03;43.08;;;6.60;99.90;;;;;;5006452;28;20478;-73
2023/02/03 07:25:23;;;;;;;56.28;27.48;;;6.60;99.90;;;;;;5010086;28;20053;-73
2023/02/03 07:27:50;;;;;;;82.38;39.28;;;6.60;99.90;;;;;;5012835;28;20049;-73
2023/02/03 07:30:17;;;;;;;90.07;41.80;;;6.60;99.90;;;;;;5028277;28;20053;-72
2023/02/03 07:32:48;;;;;;;93.10;43.55;;;6.60;99.90;;;;;;5013613;28;20084;-74
2023/02/03 07:35:15;;;;;;;82.40;40.88;;;6.60;99.90;;;;;;5013059;28;20045;-73
2023/02/03 07:37:42;;;;;;;83.47;40.78;;;6.60;99.90;;;;;;5009645;28;20069;-73
2023/02/03 07:40:11;;;;;;;86.10;41.45;;;6.60;99.90;;;;;;5013059;28;20109;-73
2023/02/03 07:42:41;;;;;;;92.47;41.25;;;6.60;99.90;;;;;;5009790;28;20442;-73
2023/02/03 07:45:09;;;;;;;81.18;40.35;;;6.60;99.90;;;;;;5006881;28;20139;-73
2023/02/03 07:47:35;;;;;;;79.95;37.20;;;6.60;99.90;;;;;;5011275;28;20056;-73
2023/02/03 07:50:03;;;;;;;85.63;40.67;;;6.60;99.90;;;;;;5002736;28;20201;-73
2023/02/03 07:52:30;;;;;;;79.57;39.13;;;6.60;99.90;;;;;;5009756;28;20113;-73
2023/02/03 07:54:56;;;;;;;82.75;38.17;;;6.60;99.90;;;;;;4992603;28;20153;-73
2023/02/03 07:57:23;;;;;;;75.28;35.28;;;6.60;99.90;;;;;;5008920;28;20428;-73
2023/02/03 07:59:50;;;;;;;91.05;43.92;;;6.60;99.90;;;;;;5008271;28;20049;-73
2023/02/03 08:02:16;;;;;;;87.30;42.60;;;6.70;99.90;;;;;;5009526;28;20249;-73
2023/02/03 08:04:43;;;;;;;93.53;44.83;;;6.70;99.90;;;;;;5015793;28;20496;-74
2023/02/03 08:07:10;;;;;;;68.13;33.75;;;6.60;99.90;;;;;;5009000;28;20132;-73
2023/02/03 08:09:36;;;;;;;75.43;37.78;;;6.70;99.90;;;;;;5011524;28;20137;-73
2023/02/03 08:12:03;;;;;;;83.05;41.35;;;6.70;99.90;;;;;;5023107;28;20435;-73
2023/02/03 08:14:30;;;;;;;76.18;37.88;;;6.70;99.90;;;;;;5012826;28;20576;-72
2023/02/03 08:16:56;;;;;;;85.22;39.97;;;6.70;99.90;;;;;;5007675;28;20505;-73
2023/02/03 08:19:23;;;;;;;83.78;42.10;;;6.70;99.90;;;;;;5011089;28;20025;-72
2023/02/03 08:21:50;;;;;;;95.53;47.05;;;6.70;99.90;;;;;;5007931;28;20046;-73
2023/02/03 08:24:16;;;;;;;96.45;45.90;;;6.70;99.90;;;;;;4995202;28;20224;-72
2023/02/03 08:26:43;;;;;;;101.72;45.40;;;6.70;99.90;;;;;;5013497;28;20396;-73
2023/02/03 08:29:10;;;;;;;99.35;41.88;;;6.70;99.90;;;;;;5010340;28;20054;-73
2023/02/03 08:31:37;;;;;;;108.75;50.75;;;6.70;99.90;;;;;;5012107;28;20053;-73
2023/02/03 08:34:04;;;;;;;116.70;51.00;;;6.70;99.90;;;;;;5011190;28;20128;-73
2023/02/03 08:36:31;;;;;;;82.60;39.13;;;6.70;99.90;;;;;;5022933;28;20056;-73
2023/02/03 08:38:58;;;;;;;112.30;50.45;;;6.70;99.90;;;;;;5024659;28;20049;-72
2023/02/03 08:41:24;;;;;;;120.95;50.15;;;6.70;99.90;;;;;;5012945;28;20045;-73
2023/02/03 08:43:52;;;;;;;99.68;42.25;;;6.70;99.90;;;;;;5012267;28;20064;-72
2023/02/03 08:46:19;;;;;;;104.13;46.90;;;6.70;99.90;;;;;;5028469;28;20410;-73
2023/02/03 08:48:46;;;;;;;94.55;42.67;;;6.70;99.90;;;;;;5010138;28;20049;-74
2023/02/03 08:51:15;;;;;;;89.45;39.10;;;6.70;99.90;;;;;;5010935;28;20076;-72
2023/02/03 08:53:42;;;;;;;115.90;52.30;;;6.70;99.90;;;;;;5015386;28;20075;-73
2023/02/03 08:56:11;;;;;;;108.03;46.45;;;6.70;99.90;;;;;;5013556;28;20061;-73
2023/02/03 08:58:38;;;;;;;122.45;50.80;;;6.70;99.90;;;;;;5022874;28;20048;-73
2023/02/03 09:01:07;;;;;;;116.85;45.22;;;6.70;99.90;;;;;;5003978;28;20528;-73
2023/02/03 09:03:34;;;;;;;118.70;47.13;;;6.70;99.90;;;;;;5015180;28;20385;-73
2023/02/03 09:06:01;;;;;;;90.53;42.38;;;6.70;99.90;;;;;;5013104;28;20153;-72
2023/02/03 09:08:28;;;;;;;125.05;50.58;;;6.70;99.90;;;;;;5029292;28;20417;-73
2023/02/03 09:10:54;;;;;;;100.03;43.67;;;6.80;99.90;;;;;;5011782;28;20037;-74
2023/02/03 09:13:21;;;;;;;77.63;36.03;;;6.70;99.90;;;;;;5014482;28;20037;-73
2023/02/03 09:15:48;;;;;;;112.00;45.75;;;6.70;99.90;;;;;;5009974;28;20069;-73
2023/02/03 09:18:15;;;;;;;125.95;54.15;;;6.70;99.90;;;;;;5012751;28;20408;-73
2023/02/03 09:20:41;;;;;;;116.95;50.35;;;6.70;99.90;;;;;;5015507;28;20041;-73
2023/02/03 09:23:08;;;;;;;112.22;50.17;;;6.70;99.90;;;;;;5009099;28;20050;-73
2023/02/03 09:25:35;;;;;;;131.85;55.55;;;6.70;99.90;;;;;;5014556;28;20092;-73
2023/02/03 09:28:02;;;;;;;114.65;48.10;;;6.80;99.90;;;;;;5009155;28;20570;-73
2023/02/03 09:30:29;;;;;;;140.32;57.45;;;6.80;99.90;;;;;;5011637;28;20037;-74
2023/02/03 09:32:57;;;;;;;140.93;59.72;;;6.80;99.90;;;;;;5013386;28;20404;-74
2023/02/03 09:35:25;;;;;;;155.57;61.03;;;6.80;99.90;;;;;;5028988;28;20137;-74
2023/02/03 09:37:52;;;;;;;133.38;54.22;;;6.80;99.90;;;;;;5025052;28;20056;-74
2023/02/03 09:40:24;;;;;;;156.02;61.42;;;6.80;99.90;;;;;;5041447;28;20056;-74
2023/02/03 09:43:02;;;;;;;150.75;59.95;;;6.80;99.90;;;;;;5024920;28;20038;-74
2023/02/03 09:45:29;;;;;;;147.00;60.25;;;6.80;99.90;;;;;;5032984;28;20034;-75
2023/02/03 09:48:11;;;;;;;125.00;51.47;;;6.80;99.90;;;;;;5015515;28;20578;-75
2023/02/03 09:50:42;;;;;;;137.88;58.75;;;6.80;99.90;;;;;;5017356;28;20037;-75
2023/02/03 09:53:31;;;;;;;113.75;51.53;;;6.80;99.90;;;;;;5017560;28;20041;-74
2023/02/03 09:55:58;;;;;;;110.22;47.38;;;6.80;99.90;;;;;;5016216;28;20052;-75
2023/02/03 09:58:31;;;;;;;109.88;48.88;;;6.80;99.90;;;;;;5027580;28;20045;-74
2023/02/03 10:01:00;;;;;;;113.78;50.60;;;6.80;99.90;;;;;;5082895;22;20052;-73
2023/02/03 10:03:41;;;;;;;105.60;47.30;;;6.80;99.90;;;;;;5048945;28;20300;-73
2023/02/03 10:06:31;;;;;;;123.20;53.67;;;6.90;99.90;;;;;;5059130;28;20036;-72
2023/02/03 10:09:19;;;;;;;106.65;45.03;;;6.90;99.90;;;;;;5058998;28;20044;-73
2023/02/03 10:11:51;;;;;;;106.70;48.15;;;6.80;99.90;;;;;;5057169;28;20062;-72
2023/02/03 10:14:42;;;;;;;105.68;48.05;;;6.80;99.90;;;;;;5040196;28;20049;-75
2023/02/03 10:17:17;;;;;;;122.40;54.70;;;6.90;99.90;;;;;;5042832;28;20068;-74
2023/02/03 10:19:47;;;;;;;;;;;6.90;99.90;;;;;;5041625;28;20521;-75
2023/02/03 10:22:20;;;;;;;93.00;42.63;;;6.90;99.90;;;;;;5056207;28;19979;-75
2023/02/03 10:25:02;;;;;;;106.10;47.38;;;6.90;99.90;;;;;;5041619;28;20141;-75
2023/02/03 10:27:31;;;;;;;106.47;44.90;;;6.90;99.90;;;;;;5039506;28;20578;-75
2023/02/03 10:30:11;;;;;;;93.47;44.00;;;7.00;99.90;;;;;;5042594;28;20151;-75
2023/02/03 10:32:37;;;;;;;100.47;45.15;;;7.00;99.90;;;;;;5026553;28;21051;-75
2023/02/03 10:35:11;;;;;;;111.90;47.35;;;7.00;99.90;;;;;;5054003;28;20413;-75
2023/02/03 10:37:50;;;;;;;84.32;41.78;;;7.00;99.90;;;;;;5056056;28;20771;-75
2023/02/03 10:40:17;;;;;;;102.15;44.08;;;7.00;99.90;;;;;;5036972;28;20514;-75
2023/02/03 10:45:37;;;;;;;90.80;41.60;;;7.10;99.90;;;;;;5054867;28;20153;-75
2023/02/03 10:48:08;;;;;;;74.38;33.75;;;7.10;99.90;;;;;;5024256;28;20048;-74
2023/02/03 10:50:37;;;;;;;68.38;33.80;;;7.10;99.90;;;;;;5056228;28;20048;-75
2023/02/03 10:53:24;;;;;;;74.20;34.95;;;7.10;99.90;;;;;;5034566;28;20053;-74
2023/02/03 10:56:01;;;;;;;68.38;31.50;;;7.10;99.90;;;;;;5036824;28;20124;-75
2023/02/03 10:58:30;;;;;;;68.97;32.30;;;7.10;99.90;;;;;;5042023;28;20090;-75
2023/02/03 11:01:14;;;;;;;68.30;31.15;;;7.20;99.90;;;;;;5033545;28;20098;-74
2023/02/03 11:03:43;;;;;;;60.05;27.75;;;7.20;99.90;;;;;;5055670;28;20494;-75
2023/02/03 11:06:13;;;;;;;59.70;28.92;;;7.10;99.90;;;;;;5041974;28;20049;-73
2023/02/03 11:08:43;;;;;;;48.10;23.60;;;7.20;99.90;;;;;;5060078;28;20048;-74
2023/02/03 11:11:32;;;;;;;54.72;24.10;;;7.20;99.90;;;;;;5059083;28;20032;-73
2023/02/03 11:14:02;;;;;;;36.90;21.40;;;7.20;99.90;;;;;;5064092;28;20105;-73
2023/02/03 11:16:34;;;;;;;50.53;22.30;;;7.20;99.90;;;;;;5045563;28;20744;-75
2023/02/03 11:19:19;;;;;;;54.70;24.17;;;7.30;99.90;;;;;;5036430;28;20048;-74
2023/02/03 11:21:55;;;;;;;47.40;20.67;;;7.30;99.90;;;;;;5033833;28;20072;-75
2023/02/03 11:24:40;;;;;;;41.70;21.52;;;7.30;99.90;;;;;;5046609;28;20055;-72
2023/02/03 11:27:14;;;;;;;56.15;23.42;;;7.30;99.90;;;;;;5042979;28;20784;-76
2023/02/03 11:29:44;;;;;;;47.10;23.00;;;7.30;99.90;;;;;;5029196;28;20627;-77
2023/02/03 11:32:20;;;;;;;49.60;23.38;;;7.30;99.90;;;;;;5038935;28;20059;-76
2023/02/03 11:34:58;;;;;;;52.15;24.48;;;7.40;99.90;;;;;;5055700;28;20052;-74
2023/02/03 11:37:26;;;;;;;45.55;22.65;;;7.40;99.90;;;;;;5038401;28;20098;-75
2023/02/03 11:40:19;;;;;;;48.78;23.88;;;7.40;99.90;;;;;;5032119;28;20063;-75
2023/02/03 11:42:48;;;;;;;57.67;25.90;;;7.40;99.90;;;;;;5048932;28;20506;-75
2023/02/03 11:45:26;;;;;;;49.50;25.23;;;7.40;99.90;;;;;;5056045;28;20135;-76
2023/02/03 11:47:57;;;;;;;54.38;24.80;;;7.40;99.90;;;;;;5037235;28;20056;-75
2023/02/03 11:50:50;;;;;;;44.83;23.10;;;7.40;99.90;;;;;;5046408;28;20052;-75
2023/02/03 11:53:41;;;;;;;48.28;23.90;;;7.40;99.90;;;;;;5034000;28;20082;-75
2023/02/03 11:56:46;;;;;;;45.60;22.05;;;7.40;99.90;;;;;;5054973;28;20448;-76
2023/02/03 11:59:28;;;;;;;52.22;22.48;;;7.40;99.90;;;;;;5036514;28;20037;-76
2023/02/03 12:02:16;;;;;;;53.58;23.80;;;7.40;99.90;;;;;;5035692;28;20041;-76
2023/02/03 12:04:57;;;;;;;48.67;23.50;;;7.40;99.90;;;;;;5024783;28;20919;-75
2023/02/03 12:07:58;;;;;;;53.25;24.98;;;7.40;99.90;;;;;;5054554;28;20098;-76
2023/02/03 12:10:40;;;;;;;55.22;23.85;;;7.40;99.90;;;;;;5036120;28;20247;-76
2023/02/03 12:13:34;;;;;;;47.50;20.25;;;7.30;99.90;;;;;;5034925;28;20875;-75
2023/02/03 12:16:26;;;;;;;28.63;13.43;;;7.40;99.90;;;;;;5036520;28;20308;-73
2023/02/03 12:19:31;;;;;;;20.63;9.82;;;7.30;99.90;;;;;;5049381;28;20430;-76
2023/02/03 12:22:11;;;;;;;14.90;7.90;;;7.30;99.90;;;;;;5032315;28;20049;-75
2023/02/03 12:25:13;;;;;;;20.38;10.93;;;7.30;99.90;;;;;;5054975;28;20101;-75
2023/02/03 12:27:53;;;;;;;27.67;12.35;;;7.30;99.90;;;;;;5024570;28;20041;-75
2023/02/03 12:30:45;;;;;;;33.33;13.25;;;7.30;99.90;;;;;;5038745;28;20068;-75
2023/02/03 12:33:16;;;;;;;26.98;12.73;;;7.30;99.90;;;;;;5020802;28;20044;-75
2023/02/03 12:36:09;;;;;;;22.55;12.15;;;7.30;99.90;;;;;;5053099;28;20394;-75
2023/02/03 12:38:45;;;;;;;32.67;12.45;;;7.30;99.90;;;;;;5054901;28;20070;-74
2023/02/03 12:41:21;;;;;;;27.70;13.38;;;7.30;99.90;;;;;;5042583;28;20260;-74
2023/02/03 12:43:52;;;;;;;26.52;13.65;;;7.30;99.90;;;;;;5053481;28;20044;-75
2023/02/03 12:46:28;;;;;;;31.42;14.73;;;7.20;99.90;;;;;;5038208;28;20135;-76
2023/02/03 12:49:25;;;;;;;35.10;14.30;;;7.30;99.90;;;;;;5032520;28;20055;-76
2023/02/03 12:52:07;;;;;;;30.23;12.60;;;7.20;99.90;;;;;;5032071;28;20048;-73
2023/02/03 12:54:45;;;;;;;29.52;11.50;;;7.20;99.90;;;;;;5034215;28;20131;-73
2023/02/03 12:57:24;;;;;;;36.17;13.80;;;7.20;99.90;;;;;;5021773;28;20537;-74
2023/02/03 13:00:14;;;;;;;40.58;15.00;;;7.20;99.90;;;;;;5039432;28;20094;-74